sensor_id;sensor_type;location;lat;lon;timestamp;pressure;altitude;pressure_sealevel;temperature;humidity
82033;BME280;71595;52.180;4.512;2024-02-26T00:00:27;100019.91;;;6.42;76.52
82033;BME280;71595;52.180;4.512;2024-02-26T00:02:53;100024.28;;;6.43;76.71
82033;BME280;71595;52.180;4.512;2024-02-26T00:05:21;100025.75;;;6.40;77.22
82033;BME280;71595;52.180;4.512;2024-02-26T00:07:47;100023.50;;;6.42;76.85
82033;BME280;71595;52.180;4.512;2024-02-26T00:10:14;100029.78;;;6.43;76.39
82033;BME280;71595;52.180;4.512;2024-02-26T00:12:39;100029.78;;;6.43;75.88
82033;BME280;71595;52.180;4.512;2024-02-26T00:15:08;100033.63;;;6.42;77.34
82033;BME280;71595;52.180;4.512;2024-02-26T00:17:33;100028.81;;;6.39;77.20
82033;BME280;71595;52.180;4.512;2024-02-26T00:20:04;100037.38;;;6.37;76.85
82033;BME280;71595;52.180;4.512;2024-02-26T00:22:34;100033.19;;;6.40;77.32
82033;BME280;71595;52.180;4.512;2024-02-26T00:24:59;100039.13;;;6.42;77.17
82033;BME280;71595;52.180;4.512;2024-02-26T00:27:24;100033.19;;;6.40;77.87
82033;BME280;71595;52.180;4.512;2024-02-26T00:29:49;100042.06;;;6.37;77.70
82033;BME280;71595;52.180;4.512;2024-02-26T00:32:15;100031.75;;;6.34;78.38
82033;BME280;71595;52.180;4.512;2024-02-26T00:34:40;100037.91;;;6.30;78.06
82033;BME280;71595;52.180;4.512;2024-02-26T00:37:13;100043.72;;;6.29;78.34
82033;BME280;71595;52.180;4.512;2024-02-26T00:39:38;100050.19;;;6.24;78.49
82033;BME280;71595;52.180;4.512;2024-02-26T00:42:04;100049.41;;;6.24;79.45
82033;BME280;71595;52.180;4.512;2024-02-26T00:44:29;100044.69;;;6.24;79.07
82033;BME280;71595;52.180;4.512;2024-02-26T00:46:55;100046.31;;;6.25;78.45
82033;BME280;71595;52.180;4.512;2024-02-26T00:49:20;100045.66;;;6.28;79.18
82033;BME280;71595;52.180;4.512;2024-02-26T00:51:47;100038.56;;;6.27;79.77
82033;BME280;71595;52.180;4.512;2024-02-26T00:54:12;100043.72;;;6.29;79.72
82033;BME280;71595;52.180;4.512;2024-02-26T00:56:38;100045.84;;;6.23;79.52
82033;BME280;71595;52.180;4.512;2024-02-26T00:59:03;100040.84;;;6.25;79.06
82033;BME280;71595;52.180;4.512;2024-02-26T01:01:29;100048.59;;;6.23;78.43
82033;BME280;71595;52.180;4.512;2024-02-26T01:03:54;100046.97;;;6.22;78.60
82033;BME280;71595;52.180;4.512;2024-02-26T01:06:20;100050.84;;;6.21;78.29
82033;BME280;71595;52.180;4.512;2024-02-26T01:08:47;100055.22;;;6.22;78.43
82033;BME280;71595;52.180;4.512;2024-02-26T01:11:12;100045.38;;;6.21;77.88
82033;BME280;71595;52.180;4.512;2024-02-26T01:13:37;100050.84;;;6.21;78.27
82033;BME280;71595;52.180;4.512;2024-02-26T01:16:03;100051.38;;;6.15;79.61
82033;BME280;71595;52.180;4.512;2024-02-26T01:18:28;100048.28;;;6.16;78.69
82033;BME280;71595;52.180;4.512;2024-02-26T01:20:54;100052.31;;;6.19;78.84
82033;BME280;71595;52.180;4.512;2024-02-26T01:23:20;100060.88;;;6.17;79.26
82033;BME280;71595;52.180;4.512;2024-02-26T01:25:45;100061.69;;;6.18;78.89
82033;BME280;71595;52.180;4.512;2024-02-26T01:28:10;100063.13;;;6.15;79.40
82033;BME280;71595;52.180;4.512;2024-02-26T01:30:36;100071.22;;;6.11;79.03
82033;BME280;71595;52.180;4.512;2024-02-26T01:33:01;100064.75;;;6.16;78.79
82033;BME280;71595;52.180;4.512;2024-02-26T01:35:26;100058.13;;;6.17;78.70
82033;BME280;71595;52.180;4.512;2024-02-26T01:37:51;100064.75;;;6.16;78.83
82033;BME280;71595;52.180;4.512;2024-02-26T01:40:17;100062.00;;;6.16;78.63
82033;BME280;71595;52.180;4.512;2024-02-26T01:42:45;100058.59;;;6.19;79.15
82033;BME280;71595;52.180;4.512;2024-02-26T01:45:12;100057.31;;;6.17;78.67
82033;BME280;71595;52.180;4.512;2024-02-26T01:47:40;100057.31;;;6.17;78.58
82033;BME280;71595;52.180;4.512;2024-02-26T01:50:05;100053.31;;;6.14;78.66
82033;BME280;71595;52.180;4.512;2024-02-26T01:52:31;100047.63;;;6.19;78.56
82033;BME280;71595;52.180;4.512;2024-02-26T01:54:57;100052.78;;;6.21;78.34
82033;BME280;71595;52.180;4.512;2024-02-26T01:57:23;100054.75;;;6.20;78.05
82033;BME280;71595;52.180;4.512;2024-02-26T01:59:48;100054.41;;;6.22;77.96
82033;BME280;71595;52.180;4.512;2024-02-26T02:02:14;100046.03;;;6.18;78.15
82033;BME280;71595;52.180;4.512;2024-02-26T02:04:40;100063.63;;;6.17;78.13
82033;BME280;71595;52.180;4.512;2024-02-26T02:07:06;100057.47;;;6.20;77.89
82033;BME280;71595;52.180;4.512;2024-02-26T02:09:31;100068.44;;;6.20;77.72
82033;BME280;71595;52.180;4.512;2024-02-26T02:11:58;100073.44;;;6.18;77.63
82033;BME280;71595;52.180;4.512;2024-02-26T02:14:24;100078.91;;;6.18;77.55
82033;BME280;71595;52.180;4.512;2024-02-26T02:16:50;100069.56;;;6.19;77.95
82033;BME280;71595;52.180;4.512;2024-02-26T02:19:15;100080.53;;;6.19;77.72
82033;BME280;71595;52.180;4.512;2024-02-26T02:21:42;100089.09;;;6.18;77.78
82033;BME280;71595;52.180;4.512;2024-02-26T02:24:07;100084.56;;;6.22;77.47
82033;BME280;71595;52.180;4.512;2024-02-26T02:26:33;100086.69;;;6.16;78.02
82033;BME280;71595;52.180;4.512;2024-02-26T02:28:58;100088.28;;;6.17;77.76
82033;BME280;71595;52.180;4.512;2024-02-26T02:31:24;100095.38;;;6.18;77.95
82033;BME280;71595;52.180;4.512;2024-02-26T02:33:50;100093.78;;;6.17;78.87
82033;BME280;71595;52.180;4.512;2024-02-26T02:36:15;100096.03;;;6.15;78.15
82033;BME280;71595;52.180;4.512;2024-02-26T02:38:58;100104.25;;;6.15;78.41
82033;BME280;71595;52.180;4.512;2024-02-26T02:41:24;100109.09;;;6.18;78.36
82033;BME280;71595;52.180;4.512;2024-02-26T02:43:51;100107.31;;;6.22;77.94
82033;BME280;71595;52.180;4.512;2024-02-26T02:46:16;100100.69;;;6.23;78.59
82033;BME280;71595;52.180;4.512;2024-02-26T02:48:42;100102.63;;;6.23;78.53
82033;BME280;71595;52.180;4.512;2024-02-26T02:51:08;100102.28;;;6.24;78.27
82033;BME280;71595;52.180;4.512;2024-02-26T02:53:34;100107.78;;;6.24;78.49
82033;BME280;71595;52.180;4.512;2024-02-26T02:55:59;100106.19;;;6.23;79.31
82033;BME280;71595;52.180;4.512;2024-02-26T02:58:24;100108.94;;;6.23;79.32
82033;BME280;71595;52.180;4.512;2024-02-26T03:00:50;100107.31;;;6.22;79.70
82033;BME280;71595;52.180;4.512;2024-02-26T03:03:15;100119.72;;;6.20;79.14
82033;BME280;71595;52.180;4.512;2024-02-26T03:05:41;100114.09;;;6.16;79.10
82033;BME280;71595;52.180;4.512;2024-02-26T03:08:06;100116.38;;;6.14;79.36
82033;BME280;71595;52.180;4.512;2024-02-26T03:10:31;100127.81;;;6.16;78.81
82033;BME280;71595;52.180;4.512;2024-02-26T03:12:57;100129.75;;;6.16;79.32
82033;BME280;71595;52.180;4.512;2024-02-26T03:15:22;100119.13;;;6.14;79.11
82033;BME280;71595;52.180;4.512;2024-02-26T03:17:48;100126.69;;;6.08;79.55
82033;BME280;71595;52.180;4.512;2024-02-26T03:20:13;100126.69;;;6.08;80.11
82033;BME280;71595;52.180;4.512;2024-02-26T03:22:39;100133.47;;;6.11;80.04
82033;BME280;71595;52.180;4.512;2024-02-26T03:25:05;100127.16;;;6.10;79.80
82033;BME280;71595;52.180;4.512;2024-02-26T03:27:31;100135.06;;;6.12;79.54
82033;BME280;71595;52.180;4.512;2024-02-26T03:29:56;100139.44;;;6.13;79.11
82033;BME280;71595;52.180;4.512;2024-02-26T03:32:22;100144.44;;;6.11;79.37
82033;BME280;71595;52.180;4.512;2024-02-26T03:34:47;100147.66;;;6.04;78.86
82033;BME280;71595;52.180;4.512;2024-02-26T03:37:12;100155.56;;;6.06;79.47
82033;BME280;71595;52.180;4.512;2024-02-26T03:39:38;100159.91;;;6.07;79.04
82033;BME280;71595;52.180;4.512;2024-02-26T03:42:04;100156.72;;;6.05;79.17
82033;BME280;71595;52.180;4.512;2024-02-26T03:44:29;100159.28;;;6.01;79.60
82033;BME280;71595;52.180;4.512;2024-02-26T03:46:54;100161.69;;;6.03;79.62
82033;BME280;71595;52.180;4.512;2024-02-26T03:49:21;100158.94;;;6.03;79.48
82033;BME280;71595;52.180;4.512;2024-02-26T03:51:47;100163.78;;;6.06;79.88
82033;BME280;71595;52.180;4.512;2024-02-26T03:54:12;100161.38;;;6.04;79.83
82033;BME280;71595;52.180;4.512;2024-02-26T03:56:38;100166.19;;;6.07;79.83
82033;BME280;71595;52.180;4.512;2024-02-26T03:59:03;100164.94;;;6.05;80.34
82033;BME280;71595;52.180;4.512;2024-02-26T04:01:28;100172.50;;;6.08;80.15
82033;BME280;71595;52.180;4.512;2024-02-26T04:03:54;100175.72;;;6.10;79.87
82033;BME280;71595;52.180;4.512;2024-02-26T04:06:19;100178.63;;;6.05;79.31
82033;BME280;71595;52.180;4.512;2024-02-26T04:08:46;100178.97;;;6.03;80.00
82033;BME280;71595;52.180;4.512;2024-02-26T04:11:12;100177.50;;;6.06;79.65
82033;BME280;71595;52.180;4.512;2024-02-26T04:13:38;100182.97;;;6.06;80.08
82033;BME280;71595;52.180;4.512;2024-02-26T04:16:09;100181.72;;;6.03;79.05
82033;BME280;71595;52.180;4.512;2024-02-26T04:18:35;100187.97;;;6.04;79.94
82033;BME280;71595;52.180;4.512;2024-02-26T04:21:01;100182.03;;;6.02;79.62
82033;BME280;71595;52.180;4.512;2024-02-26T04:23:27;100183.16;;;6.01;79.89
82033;BME280;71595;52.180;4.512;2024-02-26T04:25:52;100189.75;;;6.00;79.54
82033;BME280;71595;52.180;4.512;2024-02-26T04:28:18;100191.22;;;5.97;79.73
82033;BME280;71595;52.180;4.512;2024-02-26T04:30:46;100188.78;;;5.96;80.18
82033;BME280;71595;52.180;4.512;2024-02-26T04:33:11;100191.66;;;5.90;80.45
82033;BME280;71595;52.180;4.512;2024-02-26T04:35:37;100206.34;;;5.94;79.99
82033;BME280;71595;52.180;4.512;2024-02-26T04:38:02;100203.13;;;5.92;80.34
82033;BME280;71595;52.180;4.512;2024-02-26T04:40:27;100208.63;;;5.92;80.12
82033;BME280;71595;52.180;4.512;2024-02-26T04:42:53;100204.09;;;5.97;80.10
82033;BME280;71595;52.180;4.512;2024-02-26T04:45:18;100212.84;;;5.99;80.27
82033;BME280;71595;52.180;4.512;2024-02-26T04:47:47;100209.59;;;5.97;79.72
82033;BME280;71595;52.180;4.512;2024-02-26T04:50:12;100224.13;;;5.97;79.41
82033;BME280;71595;52.180;4.512;2024-02-26T04:52:37;100222.78;;;5.94;80.53
82033;BME280;71595;52.180;4.512;2024-02-26T04:55:03;100231.34;;;5.93;80.73
82033;BME280;71595;52.180;4.512;2024-02-26T04:57:28;100223.44;;;5.91;80.57
82033;BME280;71595;52.180;4.512;2024-02-26T04:59:54;100223.28;;;5.88;80.60
82033;BME280;71595;52.180;4.512;2024-02-26T05:02:21;100227.13;;;5.87;80.98
82033;BME280;71595;52.180;4.512;2024-02-26T05:04:46;100232.31;;;5.88;80.25
82033;BME280;71595;52.180;4.512;2024-02-26T05:07:11;100233.75;;;5.86;80.30
82033;BME280;71595;52.180;4.512;2024-02-26T05:09:37;100242.78;;;5.86;80.72
82033;BME280;71595;52.180;4.512;2024-02-26T05:12:03;100240.53;;;5.88;81.27
82033;BME280;71595;52.180;4.512;2024-02-26T05:14:28;100246.00;;;5.88;81.29
82033;BME280;71595;52.180;4.512;2024-02-26T05:16:54;100239.53;;;5.84;80.83
82033;BME280;71595;52.180;4.512;2024-02-26T05:19:19;100236.19;;;5.79;80.68
82033;BME280;71595;52.180;4.512;2024-02-26T05:21:44;100244.56;;;5.82;80.76
82033;BME280;71595;52.180;4.512;2024-02-26T05:24:12;100250.69;;;5.79;81.18
82033;BME280;71595;52.180;4.512;2024-02-26T05:26:38;100256.16;;;5.79;81.03
82033;BME280;71595;52.180;4.512;2024-02-26T05:29:03;100253.56;;;5.83;81.43
82033;BME280;71595;52.180;4.512;2024-02-26T05:31:28;100255.03;;;5.80;80.68
82033;BME280;71595;52.180;4.512;2024-02-26T05:33:54;100266.00;;;5.80;81.17
82033;BME280;71595;52.180;4.512;2024-02-26T05:36:20;100261.97;;;5.78;81.23
82033;BME280;71595;52.180;4.512;2024-02-26T05:38:47;100251.47;;;5.71;81.29
82033;BME280;71595;52.180;4.512;2024-02-26T05:41:12;100261.47;;;5.67;81.79
82033;BME280;71595;52.180;4.512;2024-02-26T05:43:37;100274.84;;;5.68;81.76
82033;BME280;71595;52.180;4.512;2024-02-26T05:46:03;100261.81;;;5.74;81.83
82033;BME280;71595;52.180;4.512;2024-02-26T05:48:28;100278.56;;;5.72;81.38
82033;BME280;71595;52.180;4.512;2024-02-26T05:50:54;100262.59;;;5.74;81.55
82033;BME280;71595;52.180;4.512;2024-02-26T05:53:19;100268.91;;;5.75;81.33
82033;BME280;71595;52.180;4.512;2024-02-26T05:55:44;100295.47;;;5.74;82.11
82033;BME280;71595;52.180;4.512;2024-02-26T05:58:10;100292.25;;;5.72;81.80
82033;BME280;71595;52.180;4.512;2024-02-26T06:00:35;100295.78;;;5.73;81.87
82033;BME280;71595;52.180;4.512;2024-02-26T06:03:02;100288.72;;;5.72;82.37
82033;BME280;71595;52.180;4.512;2024-02-26T06:05:28;100296.31;;;5.75;81.40
82033;BME280;71595;52.180;4.512;2024-02-26T06:07:54;100301.28;;;5.73;81.66
82033;BME280;71595;52.180;4.512;2024-02-26T06:10:19;100308.06;;;5.75;81.16
82033;BME280;71595;52.180;4.512;2024-02-26T06:12:46;100317.88;;;5.68;81.61
82033;BME280;71595;52.180;4.512;2024-02-26T06:15:12;100309.19;;;5.66;82.06
82033;BME280;71595;52.180;4.512;2024-02-26T06:17:37;100319.50;;;5.69;81.83
82033;BME280;71595;52.180;4.512;2024-02-26T06:20:03;100327.72;;;5.69;82.15
82033;BME280;71595;52.180;4.512;2024-02-26T06:22:31;100319.00;;;5.67;81.70
82033;BME280;71595;52.180;4.512;2024-02-26T06:24:56;100321.91;;;5.62;82.43
82033;BME280;71595;52.180;4.512;2024-02-26T06:27:22;100323.31;;;5.59;82.35
82033;BME280;71595;52.180;4.512;2024-02-26T06:29:48;100337.84;;;5.60;82.00
82033;BME280;71595;52.180;4.512;2024-02-26T06:32:13;100334.59;;;5.57;82.01
82033;BME280;71595;52.180;4.512;2024-02-26T06:34:39;100338.66;;;5.60;81.89
82033;BME280;71595;52.180;4.512;2024-02-26T06:37:06;100352.03;;;5.62;81.72
82033;BME280;71595;52.180;4.512;2024-02-26T06:39:31;100343.00;;;5.61;81.57
82033;BME280;71595;52.180;4.512;2024-02-26T06:41:56;100352.19;;;5.65;82.12
82033;BME280;71595;52.180;4.512;2024-02-26T06:44:26;100363.47;;;5.64;81.49
82033;BME280;71595;52.180;4.512;2024-02-26T06:46:57;100366.03;;;5.60;81.38
82033;BME280;71595;52.180;4.512;2024-02-26T06:49:22;100372.00;;;5.53;82.29
82033;BME280;71595;52.180;4.512;2024-02-26T06:51:47;100378.28;;;5.54;81.80
82033;BME280;71595;52.180;4.512;2024-02-26T06:54:13;100378.09;;;5.50;81.96
82033;BME280;71595;52.180;4.512;2024-02-26T06:56:38;100398.41;;;5.49;82.54
82033;BME280;71595;52.180;4.512;2024-02-26T06:59:04;100394.53;;;5.50;81.71
82033;BME280;71595;52.180;4.512;2024-02-26T07:01:29;100389.22;;;5.54;81.68
82033;BME280;71595;52.180;4.512;2024-02-26T07:03:55;100394.38;;;5.55;81.37
82033;BME280;71595;52.180;4.512;2024-02-26T07:06:21;100387.78;;;5.56;81.31
82033;BME280;71595;52.180;4.512;2024-02-26T07:08:46;100406.47;;;5.54;81.48
82033;BME280;71595;52.180;4.512;2024-02-26T07:11:12;100403.41;;;5.56;81.37
82033;BME280;71595;52.180;4.512;2024-02-26T07:13:37;100419.03;;;5.55;81.20
82033;BME280;71595;52.180;4.512;2024-02-26T07:16:10;100408.09;;;5.55;80.95
82033;BME280;71595;52.180;4.512;2024-02-26T07:18:35;100411.28;;;5.49;82.29
82033;BME280;71595;52.180;4.512;2024-02-26T07:21:04;100425.78;;;5.49;81.30
82033;BME280;71595;52.180;4.512;2024-02-26T07:23:29;100420.13;;;5.46;81.04
82033;BME280;71595;52.180;4.512;2024-02-26T07:25:55;100435.94;;;5.49;81.21
82033;BME280;71595;52.180;4.512;2024-02-26T07:28:20;100433.50;;;5.47;81.19
82033;BME280;71595;52.180;4.512;2024-02-26T07:30:46;100448.31;;;5.46;81.71
82033;BME280;71595;52.180;4.512;2024-02-26T07:33:11;100447.84;;;5.44;81.41
82033;BME280;71595;52.180;4.512;2024-02-26T07:35:37;100445.09;;;5.44;80.54
82033;BME280;71595;52.180;4.512;2024-02-26T07:38:04;100452.81;;;5.42;81.05
82033;BME280;71595;52.180;4.512;2024-02-26T07:40:30;100455.22;;;5.44;81.26
82033;BME280;71595;52.180;4.512;2024-02-26T07:42:55;100456.53;;;5.46;81.29
82033;BME280;71595;52.180;4.512;2024-02-26T07:45:21;100473.13;;;5.41;81.16
82033;BME280;71595;52.180;4.512;2024-02-26T07:47:49;100459.09;;;5.43;81.05
82033;BME280;71595;52.180;4.512;2024-02-26T07:50:16;100470.06;;;5.43;81.33
82033;BME280;71595;52.180;4.512;2024-02-26T07:52:41;100471.34;;;5.45;81.84
82033;BME280;71595;52.180;4.512;2024-02-26T07:55:07;100465.56;;;5.47;82.14
82033;BME280;71595;52.180;4.512;2024-02-26T07:57:32;100472.19;;;5.46;81.33
82033;BME280;71595;52.180;4.512;2024-02-26T07:59:59;100481.38;;;5.50;80.93
82033;BME280;71595;52.180;4.512;2024-02-26T08:02:24;100489.28;;;5.51;81.18
82033;BME280;71595;52.180;4.512;2024-02-26T08:04:50;100485.56;;;5.47;80.87
82033;BME280;71595;52.180;4.512;2024-02-26T08:07:15;100498.00;;;5.53;80.75
82033;BME280;71595;52.180;4.512;2024-02-26T08:09:40;100496.84;;;5.54;80.26
82033;BME280;71595;52.180;4.512;2024-02-26T08:12:06;100504.09;;;5.50;80.51
82033;BME280;71595;52.180;4.512;2024-02-26T08:14:32;100496.38;;;5.52;80.15
82033;BME280;71595;52.180;4.512;2024-02-26T08:16:58;100496.00;;;5.45;80.01
82033;BME280;71595;52.180;4.512;2024-02-26T08:19:23;100498.13;;;5.48;80.58
82033;BME280;71595;52.180;4.512;2024-02-26T08:21:49;100498.41;;;5.47;81.17
82033;BME280;71595;52.180;4.512;2024-02-26T08:24:14;100505.69;;;5.51;80.70
82033;BME280;71595;52.180;4.512;2024-02-26T08:26:39;100506.94;;;5.45;80.71
82033;BME280;71595;52.180;4.512;2024-02-26T08:29:05;100516.50;;;5.48;80.04
82033;BME280;71595;52.180;4.512;2024-02-26T08:31:30;100514.75;;;5.52;79.88
82033;BME280;71595;52.180;4.512;2024-02-26T08:33:59;100519.91;;;5.53;80.31
82033;BME280;71595;52.180;4.512;2024-02-26T08:36:25;100517.66;;;5.55;80.21
82033;BME280;71595;52.180;4.512;2024-02-26T08:38:51;100519.28;;;5.56;80.05
82033;BME280;71595;52.180;4.512;2024-02-26T08:41:16;100521.81;;;5.53;79.79
82033;BME280;71595;52.180;4.512;2024-02-26T08:43:41;100516.03;;;5.54;79.89
82033;BME280;71595;52.180;4.512;2024-02-26T08:46:12;100525.72;;;5.52;79.93
82033;BME280;71595;52.180;4.512;2024-02-26T08:48:38;100534.09;;;5.55;79.39
82033;BME280;71595;52.180;4.512;2024-02-26T08:51:08;100538.25;;;5.53;78.97
82033;BME280;71595;52.180;4.512;2024-02-26T08:53:34;100548.59;;;5.56;79.39
82033;BME280;71595;52.180;4.512;2024-02-26T08:55:59;100543.13;;;5.56;79.86
82033;BME280;71595;52.180;4.512;2024-02-26T08:58:26;100523.84;;;5.61;80.21
82033;BME280;71595;52.180;4.512;2024-02-26T09:00:52;100543.31;;;5.60;78.92
82033;BME280;71595;52.180;4.512;2024-02-26T09:03:17;100561.34;;;5.61;79.02
82033;BME280;71595;52.180;4.512;2024-02-26T09:05:43;100557.94;;;5.55;79.38
82033;BME280;71595;52.180;4.512;2024-02-26T09:08:08;100564.72;;;5.57;79.08
82033;BME280;71595;52.180;4.512;2024-02-26T09:10:33;100553.75;;;5.57;78.98
82033;BME280;71595;52.180;4.512;2024-02-26T09:12:59;100579.41;;;5.62;78.64
82033;BME280;71595;52.180;4.512;2024-02-26T09:15:24;100578.78;;;5.65;78.46
82033;BME280;71595;52.180;4.512;2024-02-26T09:17:50;100575.25;;;5.64;78.47
82033;BME280;71595;52.180;4.512;2024-02-26T09:20:15;100587.81;;;5.65;79.55
82033;BME280;71595;52.180;4.512;2024-02-26T09:22:45;100588.13;;;5.64;78.78
82033;BME280;71595;52.180;4.512;2024-02-26T09:25:11;100592.50;;;5.65;78.69
82033;BME280;71595;52.180;4.512;2024-02-26T09:27:36;100586.22;;;5.64;78.89
82033;BME280;71595;52.180;4.512;2024-02-26T09:30:02;100589.91;;;5.60;79.39
82033;BME280;71595;52.180;4.512;2024-02-26T09:32:27;100597.28;;;5.59;79.51
82033;BME280;71595;52.180;4.512;2024-02-26T09:34:53;100594.13;;;5.66;79.47
82033;BME280;71595;52.180;4.512;2024-02-26T09:37:18;100602.84;;;5.68;78.99
82033;BME280;71595;52.180;4.512;2024-02-26T09:39:43;100615.09;;;5.70;78.53
82033;BME280;71595;52.180;4.512;2024-02-26T09:42:09;100623.50;;;5.74;78.86
82033;BME280;71595;52.180;4.512;2024-02-26T09:44:39;100615.41;;;5.69;78.31
82033;BME280;71595;52.180;4.512;2024-02-26T09:47:08;100611.19;;;5.63;79.55
82033;BME280;71595;52.180;4.512;2024-02-26T09:49:34;100612.16;;;5.67;79.08
82033;BME280;71595;52.180;4.512;2024-02-26T09:52:00;100617.03;;;5.70;79.23
82033;BME280;71595;52.180;4.512;2024-02-26T09:54:27;100629.59;;;5.71;79.10
82033;BME280;71595;52.180;4.512;2024-02-26T09:56:59;100633.47;;;5.70;78.88
82033;BME280;71595;52.180;4.512;2024-02-26T09:59:27;100637.81;;;5.71;79.71
82033;BME280;71595;52.180;4.512;2024-02-26T10:01:53;100637.53;;;5.72;79.60
82033;BME280;71595;52.180;4.512;2024-02-26T10:04:20;100664.00;;;5.77;78.86
82033;BME280;71595;52.180;4.512;2024-02-26T10:06:46;100651.25;;;5.81;78.86
82033;BME280;71595;52.180;4.512;2024-02-26T10:09:12;100649.03;;;5.83;78.80
82033;BME280;71595;52.180;4.512;2024-02-26T10:11:38;100646.47;;;5.87;77.85
82033;BME280;71595;52.180;4.512;2024-02-26T10:14:09;100660.97;;;5.87;77.58
82033;BME280;71595;52.180;4.512;2024-02-26T10:16:35;100682.91;;;5.87;77.97
82033;BME280;71595;52.180;4.512;2024-02-26T10:19:01;100667.97;;;5.93;77.86
82033;BME280;71595;52.180;4.512;2024-02-26T10:21:26;100663.63;;;5.92;77.26
82033;BME280;71595;52.180;4.512;2024-02-26T10:23:52;100678.00;;;5.98;78.07
82033;BME280;71595;52.180;4.512;2024-02-26T10:26:19;100674.06;;;5.90;77.13
82033;BME280;71595;52.180;4.512;2024-02-26T10:28:45;100677.50;;;5.96;78.19
82033;BME280;71595;52.180;4.512;2024-02-26T10:31:11;100689.56;;;5.95;78.22
82033;BME280;71595;52.180;4.512;2024-02-26T10:33:38;100702.38;;;6.00;77.35
82033;BME280;71595;52.180;4.512;2024-02-26T10:36:04;100695.78;;;6.01;77.04
82033;BME280;71595;52.180;4.512;2024-02-26T10:38:30;100697.41;;;6.02;77.05
82033;BME280;71595;52.180;4.512;2024-02-26T10:40:58;100700.94;;;6.02;77.73
82033;BME280;71595;52.180;4.512;2024-02-26T10:43:25;100703.38;;;6.04;77.13
82033;BME280;71595;52.180;4.512;2024-02-26T10:45:51;100704.69;;;6.06;77.49
82033;BME280;71595;52.180;4.512;2024-02-26T10:48:16;100728.53;;;6.06;77.09
82033;BME280;71595;52.180;4.512;2024-02-26T10:50:43;100713.09;;;6.10;77.23
82033;BME280;71595;52.180;4.512;2024-02-26T10:53:20;100717.47;;;6.11;76.49
82033;BME280;71595;52.180;4.512;2024-02-26T10:55:58;100724.56;;;6.12;77.27
82033;BME280;71595;52.180;4.512;2024-02-26T10:58:26;100734.09;;;6.15;76.81
82033;BME280;71595;52.180;4.512;2024-02-26T11:00:52;100741.53;;;6.14;76.08
82033;BME280;71595;52.180;4.512;2024-02-26T11:03:19;100736.84;;;6.15;76.30
82033;BME280;71595;52.180;4.512;2024-02-26T11:05:49;100756.66;;;6.11;75.99
82033;BME280;71595;52.180;4.512;2024-02-26T11:08:18;100748.13;;;6.13;76.01
82033;BME280;71595;52.180;4.512;2024-02-26T11:10:47;100753.13;;;6.11;76.07
82033;BME280;71595;52.180;4.512;2024-02-26T11:13:14;100756.03;;;6.15;75.89
82033;BME280;71595;52.180;4.512;2024-02-26T11:15:40;100741.31;;;6.10;75.52
82033;BME280;71595;52.180;4.512;2024-02-26T11:18:07;100767.19;;;6.18;76.25
82033;BME280;71595;52.180;4.512;2024-02-26T11:20:34;100766.38;;;6.18;76.43
82033;BME280;71595;52.180;4.512;2024-02-26T11:23:03;100761.22;;;6.16;77.38
82033;BME280;71595;52.180;4.512;2024-02-26T11:25:28;100788.00;;;6.19;76.34
82033;BME280;71595;52.180;4.512;2024-02-26T11:27:59;100764.81;;;6.25;75.67
82033;BME280;71595;52.180;4.512;2024-02-26T11:30:30;100775.97;;;6.29;75.81
82033;BME280;71595;52.180;4.512;2024-02-26T11:32:57;100777.28;;;6.32;75.62
82033;BME280;71595;52.180;4.512;2024-02-26T11:35:22;100784.91;;;6.35;75.36
82033;BME280;71595;52.180;4.512;2024-02-26T11:37:55;100786.00;;;6.34;75.25
82033;BME280;71595;52.180;4.512;2024-02-26T11:40:23;100784.91;;;6.35;75.95
82033;BME280;71595;52.180;4.512;2024-02-26T11:42:49;100777.78;;;6.34;75.58
82033;BME280;71595;52.180;4.512;2024-02-26T11:48:04;100785.38;;;6.37;75.01
82033;BME280;71595;52.180;4.512;2024-02-26T11:50:33;100789.56;;;6.34;75.41
82033;BME280;71595;52.180;4.512;2024-02-26T11:53:30;100793.44;;;6.33;75.22
82033;BME280;71595;52.180;4.512;2024-02-26T11:59:10;100793.63;;;6.37;75.12
82033;BME280;71595;52.180;4.512;2024-02-26T12:04:24;100801.53;;;6.38;74.44
82033;BME280;71595;52.180;4.512;2024-02-26T12:07:00;100797.06;;;6.42;74.68
82033;BME280;71595;52.180;4.512;2024-02-26T12:12:00;100802.09;;;6.49;74.09
82033;BME280;71595;52.180;4.512;2024-02-26T12:14:26;100808.59;;;6.53;73.76
82033;BME280;71595;52.180;4.512;2024-02-26T12:16:51;100811.19;;;6.58;73.38
82033;BME280;71595;52.180;4.512;2024-02-26T12:19:18;100819.81;;;6.65;74.11
82033;BME280;71595;52.180;4.512;2024-02-26T12:21:44;100831.41;;;6.62;73.73
82033;BME280;71595;52.180;4.512;2024-02-26T12:24:15;100824.34;;;6.70;72.67
82033;BME280;71595;52.180;4.512;2024-02-26T12:26:46;100824.53;;;6.74;73.39
82033;BME280;71595;52.180;4.512;2024-02-26T12:29:12;100824.66;;;6.69;72.42
82033;BME280;71595;52.180;4.512;2024-02-26T12:31:39;100826.28;;;6.70;72.71
82033;BME280;71595;52.180;4.512;2024-02-26T12:34:05;100827.59;;;6.72;71.86
82033;BME280;71595;52.180;4.512;2024-02-26T12:36:31;100846.66;;;6.77;72.04
82033;BME280;71595;52.180;4.512;2024-02-26T12:38:58;100835.25;;;6.84;72.11
82033;BME280;71595;52.180;4.512;2024-02-26T12:41:23;100837.66;;;6.86;73.04
82033;BME280;71595;52.180;4.512;2024-02-26T12:43:49;100838.50;;;6.86;73.33
82033;BME280;71595;52.180;4.512;2024-02-26T12:46:15;100844.47;;;6.88;73.50
82033;BME280;71595;52.180;4.512;2024-02-26T12:48:46;100843.50;;;6.84;72.55
82033;BME280;71595;52.180;4.512;2024-02-26T12:51:12;100844.59;;;6.83;71.69
82033;BME280;71595;52.180;4.512;2024-02-26T12:53:39;100851.91;;;6.88;73.05
82033;BME280;71595;52.180;4.512;2024-02-26T12:56:06;100849.16;;;6.88;72.58
82033;BME280;71595;52.180;4.512;2024-02-26T12:58:33;100862.75;;;6.93;72.34
82033;BME280;71595;52.180;4.512;2024-02-26T13:00:59;100860.31;;;6.91;71.29
82033;BME280;71595;52.180;4.512;2024-02-26T13:03:24;100871.28;;;6.91;72.96
82033;BME280;71595;52.180;4.512;2024-02-26T13:05:50;100871.78;;;6.93;71.88